createdAt,value
2019-02-17T00:00:31.621Z,16.30
2019-02-17T00:03:00.117Z,15.70
2019-02-17T00:05:28.573Z,16.83
2019-02-17T00:07:58.541Z,15.87
2019-02-17T00:10:27.091Z,15.73
2019-02-17T00:12:55.556Z,15.37
2019-02-17T00:15:24.067Z,16.63
2019-02-17T00:17:52.504Z,16.50
2019-02-17T00:20:23.756Z,16.83
2019-02-17T00:22:52.241Z,15.90
2019-02-17T00:25:20.713Z,14.20
2019-02-17T00:27:50.627Z,15.03
2019-02-17T00:30:19.117Z,16.57
2019-02-17T00:32:48.392Z,15.35
2019-02-17T00:35:16.826Z,17.40
2019-02-17T00:37:45.392Z,16.13
2019-02-17T00:40:13.860Z,17.87
2019-02-17T00:42:43.863Z,15.75
2019-02-17T00:45:12.377Z,16.35
2019-02-17T00:47:40.833Z,14.90
2019-02-17T00:50:09.938Z,15.47
2019-02-17T00:52:38.444Z,15.43
2019-02-17T00:55:07.723Z,16.13
2019-02-17T00:57:36.236Z,15.20
2019-02-17T01:00:10.473Z,15.87
2019-02-17T01:02:38.978Z,15.60
2019-02-17T01:05:07.816Z,14.93
2019-02-17T01:07:38.422Z,16.23
2019-02-17T01:10:11.242Z,16.47
2019-02-17T01:12:39.710Z,18.10
2019-02-17T01:15:11.092Z,16.27
2019-02-17T01:17:41.136Z,15.83
2019-02-17T01:20:10.426Z,16.10
2019-02-17T01:22:39.084Z,16.20
2019-02-17T01:25:09.292Z,16.90
2019-02-17T01:27:37.801Z,14.73
2019-02-17T01:30:09.254Z,16.40
2019-02-17T01:32:38.067Z,15.68
2019-02-17T01:35:06.846Z,16.00
2019-02-17T01:37:35.721Z,16.05
2019-02-17T01:40:06.605Z,15.80
2019-02-17T01:42:35.226Z,16.13
2019-02-17T01:45:05.202Z,16.93
2019-02-17T01:47:33.646Z,15.17
2019-02-17T01:50:04.383Z,15.72
2019-02-17T01:52:32.269Z,16.10
2019-02-17T01:55:00.959Z,15.10
2019-02-17T01:57:29.429Z,16.33
2019-02-17T01:59:57.998Z,14.70
2019-02-17T02:02:27.824Z,15.53
2019-02-17T02:04:57.114Z,16.10
2019-02-17T02:07:25.573Z,15.15
2019-02-17T02:09:54.080Z,15.93
2019-02-17T02:12:22.523Z,15.95
2019-02-17T02:14:50.981Z,16.23
2019-02-17T02:17:19.500Z,15.30
2019-02-17T02:19:47.940Z,16.10
2019-02-17T02:22:19.595Z,16.93
2019-02-17T02:24:48.023Z,15.00
2019-02-17T02:27:16.524Z,16.47
2019-02-17T02:29:44.992Z,15.77
2019-02-17T02:32:13.461Z,16.93
2019-02-17T02:34:41.938Z,15.25
2019-02-17T02:37:10.437Z,16.37
2019-02-17T02:39:38.925Z,15.03
2019-02-17T02:42:07.379Z,17.20
2019-02-17T02:44:35.913Z,16.02
2019-02-17T02:47:04.501Z,15.57
2019-02-17T02:49:33.137Z,15.37
2019-02-17T02:52:01.575Z,15.15
2019-02-17T02:54:30.112Z,15.80
2019-02-17T02:56:58.581Z,16.10
2019-02-17T02:59:27.033Z,15.53
2019-02-17T03:01:55.532Z,15.87
2019-02-17T03:04:23.969Z,15.87
2019-02-17T03:06:54.795Z,15.78
2019-02-17T03:09:24.638Z,14.10
2019-02-17T03:11:53.154Z,14.53
2019-02-17T03:14:21.659Z,16.45
2019-02-17T03:17:03.850Z,16.43
2019-02-17T03:19:32.263Z,15.70
2019-02-17T03:22:00.703Z,15.40
2019-02-17T03:24:29.142Z,15.17
2019-02-17T03:26:57.575Z,16.03
2019-02-17T03:29:26.020Z,16.50
2019-02-17T03:31:54.453Z,15.48
2019-02-17T03:34:23.901Z,15.67
2019-02-17T03:36:52.325Z,16.23
2019-02-17T03:39:20.873Z,15.07
2019-02-17T03:41:49.510Z,16.00
2019-02-17T03:44:18.038Z,15.63
2019-02-17T03:46:48.131Z,16.80
2019-02-17T03:49:16.609Z,16.80
2019-02-17T03:51:46.715Z,15.37
2019-02-17T03:54:15.139Z,15.77
2019-02-17T03:56:43.572Z,15.38
2019-02-17T03:59:12.018Z,16.48
2019-02-17T04:01:40.519Z,15.40
2019-02-17T04:04:09.007Z,17.50
2019-02-17T04:06:37.477Z,15.23
2019-02-17T04:09:07.034Z,16.53
2019-02-17T04:11:35.491Z,16.43
2019-02-17T04:14:03.923Z,16.03
2019-02-17T04:16:32.381Z,15.97
2019-02-17T04:19:01.602Z,15.00
2019-02-17T04:21:30.054Z,16.17
2019-02-17T04:24:00.099Z,15.73
2019-02-17T04:26:31.342Z,15.37
2019-02-17T04:28:59.805Z,16.33
2019-02-17T04:31:28.390Z,16.37
2019-02-17T04:33:58.490Z,16.47
2019-02-17T04:36:27.000Z,16.15
2019-02-17T04:38:55.451Z,17.13
2019-02-17T04:41:23.887Z,17.80
2019-02-17T04:43:52.324Z,15.90
2019-02-17T04:46:22.307Z,16.50
2019-02-17T04:48:50.819Z,16.40
2019-02-17T04:51:26.799Z,17.63
2019-02-17T04:53:55.281Z,16.77
2019-02-17T04:56:23.783Z,16.03
2019-02-17T04:58:52.305Z,17.30
2019-02-17T05:01:22.446Z,16.80
2019-02-17T05:03:51.104Z,17.20
2019-02-17T05:06:19.707Z,17.03
2019-02-17T05:08:52.037Z,16.00
2019-02-17T05:11:30.957Z,16.63
2019-02-17T05:13:59.612Z,17.73
2019-02-17T05:16:33.494Z,17.57
2019-02-17T05:19:01.968Z,15.73
2019-02-17T05:21:31.392Z,18.67
2019-02-17T05:23:59.931Z,16.83
2019-02-17T05:26:30.530Z,16.90
2019-02-17T05:28:59.029Z,16.53
2019-02-17T05:31:28.906Z,16.40
2019-02-17T05:33:57.388Z,16.00
2019-02-17T05:36:25.817Z,17.03
2019-02-17T05:38:54.312Z,18.70
2019-02-17T05:41:22.740Z,18.10
2019-02-17T05:43:52.833Z,18.10
2019-02-17T05:46:21.257Z,18.97
2019-02-17T05:48:49.710Z,17.13
2019-02-17T05:51:19.812Z,15.95
2019-02-17T05:53:54.121Z,17.13
2019-02-17T05:56:21.928Z,16.73
2019-02-17T05:58:50.478Z,16.57
2019-02-17T06:01:18.891Z,16.87
2019-02-17T06:03:47.342Z,17.07
2019-02-17T06:06:17.426Z,16.93
2019-02-17T06:08:45.978Z,16.00
2019-02-17T06:11:14.441Z,18.87
2019-02-17T06:13:42.977Z,16.87
2019-02-17T06:16:11.494Z,17.83
2019-02-17T06:18:39.946Z,17.62
2019-02-17T06:21:09.957Z,16.33
2019-02-17T06:23:38.431Z,18.12
2019-02-17T06:26:06.926Z,16.47
2019-02-17T06:28:35.798Z,16.63
2019-02-17T06:31:13.744Z,17.03
2019-02-17T06:33:36.054Z,18.03
2019-02-17T06:36:04.614Z,18.00
2019-02-17T06:38:35.878Z,16.23
2019-02-17T06:41:03.293Z,16.37
2019-02-17T06:43:31.807Z,15.57
2019-02-17T06:46:00.648Z,16.47
2019-02-17T06:48:31.421Z,17.13
2019-02-17T06:50:59.293Z,16.23
2019-02-17T06:53:27.751Z,17.50
2019-02-17T06:56:00.814Z,21.10
2019-02-17T06:58:30.798Z,18.73
2019-02-17T07:00:59.488Z,17.03
2019-02-17T07:03:27.965Z,18.43
2019-02-17T07:06:03.291Z,18.03
2019-02-17T07:08:31.874Z,18.63
2019-02-17T07:11:00.432Z,19.07
2019-02-17T07:13:28.879Z,23.53
2019-02-17T07:15:57.530Z,19.17
2019-02-17T07:18:25.991Z,17.65
2019-02-17T07:20:54.428Z,18.37
2019-02-17T07:23:22.884Z,17.90
2019-02-17T07:25:51.321Z,17.17
2019-02-17T07:28:20.168Z,18.45
2019-02-17T07:30:48.609Z,19.23
2019-02-17T07:33:17.133Z,17.63
2019-02-17T07:35:46.020Z,17.77
2019-02-17T07:38:14.480Z,17.53
2019-02-17T07:40:43.726Z,17.34
2019-02-17T07:43:18.028Z,18.17
2019-02-17T07:45:49.188Z,17.50
2019-02-17T07:48:17.733Z,19.10
2019-02-17T07:50:46.799Z,20.35
2019-02-17T07:53:15.332Z,19.57
2019-02-17T07:55:43.861Z,18.43
2019-02-17T07:58:12.397Z,18.80
2019-02-17T08:00:44.315Z,20.40
2019-02-17T08:03:14.490Z,20.77
2019-02-17T08:05:43.073Z,18.17
2019-02-17T08:08:14.624Z,18.70
2019-02-17T08:10:47.828Z,19.60
2019-02-17T08:13:16.310Z,18.17
2019-02-17T08:15:49.669Z,18.87
2019-02-17T08:18:22.261Z,17.87
2019-02-17T08:20:50.695Z,18.53
2019-02-17T08:23:23.365Z,20.37
2019-02-17T08:26:01.090Z,19.50
2019-02-17T08:28:29.574Z,21.60
2019-02-17T08:30:58.023Z,17.77
2019-02-17T08:33:26.622Z,18.00
2019-02-17T08:35:56.771Z,18.60
2019-02-17T08:38:25.278Z,18.37
2019-02-17T08:40:53.778Z,18.47
2019-02-17T08:43:22.258Z,17.77
2019-02-17T08:45:53.912Z,18.50
2019-02-17T08:48:26.696Z,18.70
2019-02-17T08:50:58.182Z,19.30
2019-02-17T08:53:29.861Z,17.20
2019-02-17T08:55:58.945Z,16.15
2019-02-17T08:58:36.299Z,17.70
2019-02-17T09:01:10.477Z,18.25
2019-02-17T09:03:40.556Z,17.67
2019-02-17T09:06:11.435Z,17.07
2019-02-17T09:08:41.653Z,15.77
2019-02-17T09:11:10.103Z,17.80
2019-02-17T09:13:38.538Z,17.40
2019-02-17T09:16:12.123Z,17.67
2019-02-17T09:18:40.645Z,18.00
2019-02-17T09:21:11.445Z,17.30
2019-02-17T09:23:40.297Z,15.63
2019-02-17T09:26:08.742Z,16.83
2019-02-17T09:28:38.459Z,16.97
2019-02-17T09:31:07.006Z,14.53
2019-02-17T09:33:35.592Z,18.03
2019-02-17T09:36:06.992Z,18.13
2019-02-17T09:38:34.386Z,16.10
2019-02-17T09:41:03.020Z,17.57
2019-02-17T09:43:33.135Z,15.50
2019-02-17T09:46:01.671Z,17.30
2019-02-17T09:48:30.153Z,16.50
2019-02-17T09:50:59.901Z,17.90
2019-02-17T09:53:28.409Z,17.10
2019-02-17T09:55:58.141Z,16.60
2019-02-17T09:58:26.598Z,14.60
2019-02-17T10:00:56.287Z,16.70
2019-02-17T10:03:25.147Z,15.27
2019-02-17T10:05:54.314Z,16.70
2019-02-17T10:08:29.771Z,16.77
2019-02-17T10:10:55.386Z,16.97
2019-02-17T10:13:23.959Z,16.03
2019-02-17T10:15:56.325Z,17.33
2019-02-17T10:18:26.275Z,14.93
2019-02-17T10:20:54.800Z,15.57
2019-02-17T10:23:23.395Z,14.30
2019-02-17T10:25:52.001Z,29.00
2019-02-17T10:28:20.500Z,15.87
2019-02-17T10:30:50.717Z,15.70
2019-02-17T10:33:19.250Z,15.70
2019-02-17T10:35:48.068Z,15.43
2019-02-17T10:38:20.687Z,14.57
2019-02-17T10:40:49.171Z,15.83
2019-02-17T10:43:17.654Z,15.67
2019-02-17T10:45:50.768Z,15.88
2019-02-17T10:48:19.387Z,19.70
2019-02-17T10:50:49.473Z,21.07
2019-02-17T10:53:24.124Z,17.10
2019-02-17T10:55:49.777Z,15.43
2019-02-17T10:58:18.231Z,16.73
2019-02-17T11:00:47.215Z,14.47
2019-02-17T11:03:15.689Z,16.80
2019-02-17T11:05:46.877Z,15.10
2019-02-17T11:08:14.473Z,17.07
2019-02-17T11:10:42.986Z,16.07
2019-02-17T11:13:11.603Z,15.50
2019-02-17T11:15:40.176Z,13.83
2019-02-17T11:18:08.806Z,14.30
2019-02-17T11:20:37.430Z,17.13
2019-02-17T11:23:06.720Z,16.40
2019-02-17T11:25:38.215Z,16.20
2019-02-17T11:28:07.024Z,17.07
2019-02-17T11:30:35.574Z,14.40
2019-02-17T11:33:05.672Z,16.17
2019-02-17T11:35:34.199Z,14.40
2019-02-17T11:38:05.348Z,14.07
2019-02-17T11:40:43.437Z,16.52
2019-02-17T11:43:13.060Z,14.38
2019-02-17T11:45:45.923Z,15.00
2019-02-17T11:48:18.388Z,14.28
2019-02-17T11:50:46.928Z,14.80
2019-02-17T11:53:18.642Z,14.50
2019-02-17T11:55:54.128Z,14.40
2019-02-17T11:58:22.332Z,15.48
2019-02-17T12:00:59.102Z,15.50
2019-02-17T12:06:16.975Z,17.00
2019-02-17T12:08:49.008Z,17.10
2019-02-17T12:11:24.904Z,14.18
2019-02-17T12:13:58.472Z,14.33
2019-02-17T12:16:36.498Z,12.07
2019-02-17T12:19:14.808Z,15.80
2019-02-17T12:22:04.666Z,16.40
2019-02-17T12:24:29.554Z,15.43
2019-02-17T12:27:11.929Z,12.63
2019-02-17T12:29:48.658Z,13.90
2019-02-17T12:32:28.451Z,12.00
2019-02-17T12:34:58.757Z,14.85
2019-02-17T12:37:40.958Z,11.73
2019-02-17T12:43:56.927Z,13.00
2019-02-17T12:46:34.298Z,12.53
2019-02-17T12:49:04.120Z,13.27
2019-02-17T12:51:36.837Z,15.05
2019-02-17T12:59:51.667Z,11.88
2019-02-17T13:02:22.996Z,11.18
2019-02-17T13:05:00.383Z,11.60
2019-02-17T13:07:23.294Z,14.23
2019-02-17T13:09:51.815Z,27.60
2019-02-17T13:12:20.340Z,14.25
2019-02-17T13:14:48.931Z,15.40
2019-02-17T13:17:18.754Z,11.97
2019-02-17T13:19:49.079Z,15.93
2019-02-17T13:22:17.859Z,13.18
2019-02-17T13:24:47.832Z,12.10
2019-02-17T13:27:19.981Z,14.95
2019-02-17T13:29:48.473Z,24.77
2019-02-17T13:32:17.228Z,11.53
2019-02-17T13:34:45.741Z,11.78
2019-02-17T13:37:14.603Z,11.65
2019-02-17T13:39:43.335Z,12.60
2019-02-17T13:42:11.947Z,16.34
2019-02-17T13:44:40.357Z,12.98
2019-02-17T13:47:08.907Z,9.65
2019-02-17T13:49:37.432Z,10.78
2019-02-17T13:52:06.646Z,11.97
2019-02-17T13:54:35.873Z,12.00
2019-02-17T13:57:04.448Z,11.50
2019-02-17T13:59:32.884Z,9.50
2019-02-17T14:02:01.339Z,11.00
2019-02-17T14:04:29.808Z,10.63
2019-02-17T14:06:58.338Z,10.43
2019-02-17T14:09:46.316Z,9.63
2019-02-17T14:12:14.762Z,10.95
2019-02-17T14:14:43.249Z,10.10
2019-02-17T14:17:11.714Z,10.00
2019-02-17T14:19:40.177Z,10.63
2019-02-17T14:22:10.336Z,10.45
2019-02-17T14:24:38.851Z,11.90
2019-02-17T14:27:08.981Z,9.50
2019-02-17T14:29:37.697Z,12.43
2019-02-17T14:32:06.197Z,9.45
2019-02-17T14:34:36.185Z,12.50
2019-02-17T14:37:04.684Z,10.43
2019-02-17T14:39:33.178Z,11.95
2019-02-17T14:42:01.604Z,8.78
2019-02-17T14:44:30.153Z,9.48
2019-02-17T14:47:00.162Z,9.80
2019-02-17T14:49:28.597Z,8.73
2019-02-17T14:51:57.061Z,18.07
2019-02-17T14:54:27.146Z,10.05
2019-02-17T14:56:55.634Z,10.38
2019-02-17T14:59:24.219Z,9.73
2019-02-17T15:01:57.134Z,15.78
2019-02-17T15:04:23.010Z,9.60
2019-02-17T15:06:52.687Z,8.05
2019-02-17T15:09:22.673Z,9.45
2019-02-17T15:11:51.711Z,9.63
2019-02-17T15:14:20.704Z,7.85
2019-02-17T15:16:49.232Z,10.40
2019-02-17T15:19:17.820Z,8.08
2019-02-17T15:21:46.422Z,9.47
2019-02-17T15:24:14.870Z,11.80
2019-02-17T15:26:43.337Z,8.85
2019-02-17T15:29:11.845Z,10.67
2019-02-17T15:31:40.300Z,11.08
2019-02-17T15:34:18.194Z,10.37
2019-02-17T15:36:40.446Z,10.87
2019-02-17T15:39:09.148Z,9.50
2019-02-17T15:41:37.816Z,9.07
2019-02-17T15:44:06.412Z,9.10
2019-02-17T15:46:34.984Z,9.40
2019-02-17T15:49:03.593Z,9.93
2019-02-17T15:51:32.205Z,9.77
2019-02-17T15:54:02.038Z,8.68
2019-02-17T15:56:30.527Z,8.17
2019-02-17T15:58:59.121Z,9.03
2019-02-17T16:01:27.566Z,9.47
2019-02-17T16:03:56.279Z,10.23
2019-02-17T16:06:26.431Z,9.80
2019-02-17T16:08:55.145Z,9.83
2019-02-17T16:11:23.655Z,10.00
2019-02-17T16:13:55.165Z,12.37
2019-02-17T16:16:23.610Z,11.87
2019-02-17T16:18:52.378Z,9.73
2019-02-17T16:21:23.904Z,8.70
2019-02-17T16:23:52.365Z,8.67
2019-02-17T16:26:21.157Z,9.15
2019-02-17T16:28:59.019Z,7.60
2019-02-17T16:31:22.867Z,17.35
2019-02-17T16:33:51.419Z,11.73
2019-02-17T16:36:19.922Z,8.50
2019-02-17T16:38:48.488Z,15.68
2019-02-17T16:41:17.075Z,8.00
2019-02-17T16:43:45.718Z,8.48
2019-02-17T16:46:14.271Z,10.17
2019-02-17T16:48:44.360Z,10.43
2019-02-17T16:51:12.903Z,9.10
2019-02-17T16:53:41.497Z,8.45
2019-02-17T16:56:11.723Z,8.50
2019-02-17T16:58:40.313Z,12.87
2019-02-17T17:01:08.840Z,12.17
2019-02-17T17:03:37.305Z,9.90
2019-02-17T17:06:05.823Z,10.57
2019-02-17T17:08:34.266Z,8.30
2019-02-17T17:11:02.718Z,7.53
2019-02-17T17:13:31.279Z,8.03
2019-02-17T17:15:59.939Z,12.20
2019-02-17T17:18:28.626Z,8.30
2019-02-17T17:20:57.337Z,8.00
2019-02-17T17:23:29.508Z,8.30
2019-02-17T17:25:57.839Z,8.23
2019-02-17T17:28:27.996Z,7.58
2019-02-17T17:34:06.829Z,7.10
2019-02-17T17:36:35.268Z,9.67
2019-02-17T17:39:05.677Z,8.43
2019-02-17T17:41:34.164Z,7.97
2019-02-17T17:44:02.755Z,7.83
2019-02-17T17:46:32.736Z,7.37
2019-02-17T17:49:01.332Z,8.40
2019-02-17T17:51:29.869Z,9.97
2019-02-17T17:54:00.892Z,9.60
2019-02-17T17:56:29.413Z,8.80
2019-02-17T17:59:00.275Z,7.17
2019-02-17T18:01:28.787Z,8.07
2019-02-17T18:03:57.309Z,6.70
2019-02-17T18:06:25.747Z,7.23
2019-02-17T18:08:55.862Z,7.55
2019-02-17T18:11:24.380Z,8.17
2019-02-17T18:13:56.129Z,7.15
2019-02-17T18:16:24.711Z,7.10
2019-02-17T18:18:53.232Z,7.10
2019-02-17T18:21:23.385Z,7.37
2019-02-17T18:23:53.024Z,9.17
2019-02-17T18:26:23.268Z,6.83
2019-02-17T18:28:53.432Z,8.07
2019-02-17T18:31:22.130Z,7.37
2019-02-17T18:33:52.677Z,7.50
2019-02-17T18:36:20.965Z,8.00
2019-02-17T18:38:49.580Z,7.87
2019-02-17T18:44:02.112Z,7.63
2019-02-17T18:46:30.591Z,6.95
2019-02-17T18:49:03.714Z,7.77
2019-02-17T18:51:32.297Z,6.92
2019-02-17T18:54:00.749Z,8.40
2019-02-17T18:56:32.182Z,7.77
2019-02-17T18:59:02.221Z,8.50
2019-02-17T19:01:30.755Z,7.63
2019-02-17T19:04:00.442Z,8.00
2019-02-17T19:06:29.032Z,7.23
2019-02-17T19:08:57.689Z,7.80
2019-02-17T19:11:27.753Z,7.87
2019-02-17T19:13:56.258Z,10.40
2019-02-17T19:16:24.810Z,7.83
2019-02-17T19:18:53.426Z,8.00
2019-02-17T19:21:21.932Z,7.80
2019-02-17T19:23:50.495Z,8.27
2019-02-17T19:26:18.948Z,8.70
2019-02-17T19:28:47.523Z,8.43
2019-02-17T19:31:19.068Z,7.82
2019-02-17T19:33:50.806Z,9.10
2019-02-17T19:36:19.310Z,8.20
2019-02-17T19:39:06.372Z,8.58
2019-02-17T19:42:06.498Z,8.70
2019-02-17T19:44:15.960Z,8.63
2019-02-17T19:46:45.209Z,8.68
2019-02-17T19:49:50.562Z,8.00
2019-02-17T19:51:50.104Z,9.40
2019-02-17T19:54:24.466Z,8.37
2019-02-17T19:57:26.466Z,9.33
2019-02-17T19:59:29.281Z,10.00
2019-02-17T20:01:59.059Z,9.07
2019-02-17T20:04:29.282Z,12.30
2019-02-17T20:07:14.558Z,8.77
2019-02-17T20:09:34.074Z,8.80
2019-02-17T20:12:02.634Z,8.08
2019-02-17T20:14:31.847Z,8.17
2019-02-17T20:17:00.541Z,8.98
2019-02-17T20:19:30.922Z,7.97
2019-02-17T20:21:59.688Z,10.27
2019-02-17T20:24:28.306Z,9.37
2019-02-17T20:27:02.954Z,9.40
2019-02-17T20:29:31.572Z,9.10
2019-02-17T20:32:21.657Z,9.73
2019-02-17T20:34:54.450Z,9.30
2019-02-17T20:37:20.482Z,9.93
2019-02-17T20:39:49.083Z,9.50
2019-02-17T20:42:20.715Z,9.83
2019-02-17T20:44:49.220Z,10.20
2019-02-17T20:47:19.215Z,9.70
2019-02-17T20:49:49.331Z,9.47
2019-02-17T20:52:17.933Z,9.70
2019-02-17T20:54:46.516Z,10.10
2019-02-17T20:57:16.648Z,9.40
2019-02-17T20:59:45.478Z,11.60
2019-02-17T21:02:15.700Z,10.27
2019-02-17T21:04:49.951Z,9.97
2019-02-17T21:07:18.325Z,12.67
2019-02-17T21:10:00.469Z,11.80
2019-02-17T21:13:02.475Z,10.00
2019-02-17T21:15:33.826Z,10.03
2019-02-17T21:17:59.623Z,10.63
2019-02-17T21:20:28.440Z,9.33
2019-02-17T21:22:57.255Z,9.37
2019-02-17T21:25:30.283Z,10.00
2019-02-17T21:27:56.817Z,10.55
2019-02-17T21:30:25.318Z,9.53
2019-02-17T21:32:55.387Z,11.93
2019-02-17T21:35:23.847Z,10.57
2019-02-17T21:37:59.192Z,10.20
2019-02-17T21:40:25.089Z,9.63
2019-02-17T21:42:53.870Z,9.30
2019-02-17T21:45:23.472Z,10.73
2019-02-17T21:47:51.985Z,10.10
2019-02-17T21:50:23.140Z,10.83
2019-02-17T21:52:53.602Z,9.07
2019-02-17T21:55:21.830Z,9.77
2019-02-17T21:57:51.948Z,12.67
2019-02-17T22:00:32.276Z,10.68
2019-02-17T22:03:00.753Z,10.07
2019-02-17T22:05:29.869Z,10.25
2019-02-17T22:07:58.315Z,9.83
2019-02-17T22:10:27.289Z,9.60
2019-02-17T22:12:55.877Z,10.23
2019-02-17T22:15:24.495Z,9.97
2019-02-17T22:17:53.055Z,10.40
2019-02-17T22:20:21.648Z,10.47
2019-02-17T22:22:50.092Z,10.30
2019-02-17T22:25:18.698Z,10.70
2019-02-17T22:27:48.872Z,10.70
2019-02-17T22:30:17.301Z,9.77
2019-02-17T22:32:45.820Z,9.93
2019-02-17T22:35:14.445Z,9.83
2019-02-17T22:37:42.878Z,10.80
2019-02-17T22:40:15.486Z,9.33
2019-02-17T22:42:44.120Z,9.70
2019-02-17T22:45:12.984Z,10.60
2019-02-17T22:47:41.494Z,9.33
2019-02-17T22:50:14.304Z,9.53
2019-02-17T22:52:43.189Z,9.60
2019-02-17T22:55:12.794Z,9.17
2019-02-17T22:57:41.267Z,8.90
2019-02-17T23:00:53.561Z,10.20
2019-02-17T23:03:22.133Z,9.43
2019-02-17T23:05:50.556Z,9.37
2019-02-17T23:08:19.101Z,9.63
2019-02-17T23:10:47.603Z,9.93
2019-02-17T23:13:16.229Z,9.87
2019-02-17T23:15:47.942Z,10.00
2019-02-17T23:18:19.190Z,9.23
2019-02-17T23:20:47.895Z,9.08
2019-02-17T23:23:16.407Z,9.37
2019-02-17T23:25:44.829Z,8.65
2019-02-17T23:28:13.432Z,8.23
2019-02-17T23:30:41.895Z,9.30
2019-02-17T23:33:10.429Z,9.70
2019-02-17T23:35:38.936Z,8.97
2019-02-17T23:38:07.389Z,9.15
2019-02-17T23:40:35.966Z,8.67
2019-02-17T23:43:05.680Z,8.55
2019-02-17T23:45:34.244Z,8.63
2019-02-17T23:48:04.781Z,9.88
2019-02-17T23:50:33.236Z,9.03
2019-02-17T23:53:02.653Z,8.97
2019-02-17T23:55:31.170Z,9.30
2019-02-17T23:57:59.610Z,8.30
